Time;durP1;ratioP1;P1;durP2;ratioP2;P2;SDS_P1;SDS_P2;PMS_P1;PMS_P2;Temp;Humidity;BMP_temperature;BMP_pressure;BME280_temperature;BME280_humidity;BME280_pressure;Samples;Min_cycle;Max_cycle;Signal;HPM_P1;HPM_P2
2023/08/19 00:01:03;;;;;;;;;;;;;;;27.09;40.87;99561.25;5073915;28;20405;-78
2023/08/19 00:03:29;;;;;;;;;;;;;;;27.12;40.88;99565.28;5074471;28;19966;-78
2023/08/19 00:05:54;;;;;;;;;;;;;;;27.14;40.77;99557.69;5056000;28;20344;-78
2023/08/19 00:08:19;;;;;;;;;;;;;;;27.15;40.93;99551.16;5074293;28;19912;-78
2023/08/19 00:10:45;;;;;;;;;;;;;;;27.18;41.17;99559.53;5073560;28;19923;-78
2023/08/19 00:13:10;;;;;;;;;;;;;;;27.12;41.08;99562.56;5056737;28;19912;-78
2023/08/19 00:15:35;;;;;;;;;;;;;;;27.04;41.09;99555.06;5081036;28;20001;-78
2023/08/19 00:18:01;;;;;;;;;;;;;;;26.96;40.97;99558.38;5078003;28;19932;-76
2023/08/19 00:20:28;;;;;;;;;;;;;;;26.90;40.94;99552.19;5073503;28;19919;-76
2023/08/19 00:22:54;;;;;;;;;;;;;;;26.85;41.14;99563.88;5073365;28;19958;-78
2023/08/19 00:25:19;;;;;;;;;;;;;;;26.82;41.42;99563.66;5073329;28;19956;-78
2023/08/19 00:27:44;;;;;;;;;;;;;;;26.83;41.58;99562.56;5073386;28;20003;-78
2023/08/19 00:30:10;;;;;;;;;;;;;;;26.78;41.44;99562.59;5072981;28;19924;-78
2023/08/19 00:32:35;;;;;;;;;;;;;;;26.76;41.32;99571.00;5055210;28;19913;-78
2023/08/19 00:35:00;;;;;;;;;;;;;;;26.71;41.77;99579.16;5073202;28;19912;-78
2023/08/19 00:37:25;;;;;;;;;;;;;;;26.71;41.50;99576.44;5074491;28;20381;-78
2023/08/19 00:39:51;;;;;;;;;;;;;;;26.69;41.04;99580.53;5087366;28;19920;-77
2023/08/19 00:42:16;;;;;;;;;;;;;;;26.67;41.18;99580.81;5075655;28;19912;-78
2023/08/19 00:44:41;;;;;;;;;;;;;;;26.60;41.26;99572.19;5055097;28;20293;-77
2023/08/19 00:47:07;;;;;;;;;;;;;;;26.58;41.62;99580.59;5054168;28;19912;-78
2023/08/19 00:49:32;;;;;;;;;;;;;;;26.55;41.37;99577.66;5054746;28;19916;-78
2023/08/19 00:51:58;;;;;;;;;;;;;;;26.48;41.26;99580.69;5072650;28;19939;-77
2023/08/19 00:54:23;;;;;;;;;;;;;;;26.39;42.07;99590.47;5054483;28;19919;-78
2023/08/19 00:56:49;;;;;;;;;;;;;;;26.36;41.13;99585.63;5054674;28;20355;-78
2023/08/19 00:59:14;;;;;;;;;;;;;;;26.31;41.95;99585.63;5072811;28;19912;-77
2023/08/19 01:01:40;;;;;;;;;;;;;;;26.25;41.88;99589.47;5054512;28;19920;-77
2023/08/19 01:04:05;;;;;;;;;;;;;;;26.15;41.93;99565.16;5072611;28;19919;-77
2023/08/19 01:06:39;;;;;;;;;;;;;;;26.10;42.02;99568.72;5054486;28;19912;-77
2023/08/19 01:09:12;;;;;;;;;;;;;;;26.09;42.80;99561.69;5072341;28;20400;-78
2023/08/19 01:11:47;;;;;;;;;;;;;;;26.04;42.62;99560.91;5072345;28;20450;-78
2023/08/19 01:14:23;;;;;;;;;;;;;;;26.02;42.13;99576.59;5072386;28;19916;-78
2023/08/19 01:16:50;;;;;;;;;;;;;;;26.01;42.12;99589.31;5072692;28;19919;-78
2023/08/19 01:19:45;;;;;;;;;;;;;;;25.94;41.92;99588.78;5054497;28;20011;-77
2023/08/19 01:22:11;;;;;;;;;;;;;;;25.94;41.90;99572.56;5059115;28;19918;-78
2023/08/19 01:24:37;;;;;;;;;;;;;;;25.95;41.81;99561.44;5054552;28;20389;-77
2023/08/19 01:27:03;;;;;;;;;;;;;;;25.93;42.49;99579.06;5054564;28;19912;-77
2023/08/19 01:29:29;;;;;;;;;;;;;;;25.95;41.99;99585.81;5054458;28;20378;-77
2023/08/19 01:31:54;;;;;;;;;;;;;;;25.97;42.22;99588.22;5072219;28;19964;-77
2023/08/19 01:34:21;;;;;;;;;;;;;;;25.94;42.44;99592.31;5072315;28;19912;-78
2023/08/19 01:36:49;;;;;;;;;;;;;;;25.95;42.22;99588.50;5054792;28;20005;-77
2023/08/19 01:39:16;;;;;;;;;;;;;;;25.96;41.91;99584.72;5072346;28;19917;-78
2023/08/19 01:41:41;;;;;;;;;;;;;;;25.95;41.68;99583.09;5072327;28;19917;-77
2023/08/19 01:44:07;;;;;;;;;;;;;;;25.92;42.10;99583.66;5072264;28;19920;-78
2023/08/19 01:46:32;;;;;;;;;;;;;;;25.89;42.24;99586.09;5072291;28;20386;-77
2023/08/19 01:48:58;;;;;;;;;;;;;;;25.88;42.14;99579.06;5054791;28;20011;-77
2023/08/19 01:51:23;;;;;;;;;;;;;;;25.86;42.58;99560.41;5054106;28;20305;-77
2023/08/19 01:53:48;;;;;;;;;;;;;;;25.85;42.23;99545.28;5072435;28;19978;-77
2023/08/19 01:56:13;;;;;;;;;;;;;;;25.89;42.64;99545.53;5054272;28;19913;-77
2023/08/19 01:58:39;;;;;;;;;;;;;;;25.93;42.43;99533.06;5072007;28;19973;-78
2023/08/19 02:01:04;;;;;;;;;;;;;;;25.97;41.80;99534.94;5071950;28;19981;-77
2023/08/19 02:03:29;;;;;;;;;;;;;;;26.00;41.52;99530.03;5054030;28;19912;-78
2023/08/19 02:05:55;;;;;;;;;;;;;;;26.04;41.56;99531.94;5053928;28;20409;-77
2023/08/19 02:08:20;;;;;;;;;;;;;;;26.13;41.15;99532.16;5071593;28;19912;-77
2023/08/19 02:10:45;;;;;;;;;;;;;;;26.15;41.31;99540.81;5053405;28;20317;-77
2023/08/19 02:13:10;;;;;;;;;;;;;;;26.22;41.04;99536.69;5071607;28;19912;-77
2023/08/19 02:15:36;;;;;;;;;;;;;;;26.27;40.91;99538.56;5071594;28;20003;-77
2023/08/19 02:18:01;;;;;;;;;;;;;;;26.30;41.07;99535.28;5071477;28;19913;-78
2023/08/19 02:20:27;;;;;;;;;;;;;;;26.35;40.92;99535.28;5071600;28;19913;-79
2023/08/19 02:22:52;;;;;;;;;;;;;;;26.37;41.00;99530.41;5071582;28;19919;-77
2023/08/19 02:25:18;;;;;;;;;;;;;;;26.41;40.69;99526.03;5071459;28;19951;-78
2023/08/19 02:27:43;;;;;;;;;;;;;;;26.44;40.34;99519.25;5071473;28;20377;-77
2023/08/19 02:30:10;;;;;;;;;;;;;;;26.47;40.54;99513.25;5071354;28;20388;-77
2023/08/19 02:32:35;;;;;;;;;;;;;;;26.49;40.13;99500.25;5071322;28;20415;-77
2023/08/19 02:35:01;;;;;;;;;;;;;;;26.47;40.07;99481.59;5071286;28;19913;-77
2023/08/19 02:37:26;;;;;;;;;;;;;;;26.45;39.95;99497.31;5071221;28;19912;-78
2023/08/19 02:39:51;;;;;;;;;;;;;;;26.45;40.01;99499.19;5071483;28;19913;-77
2023/08/19 02:42:17;;;;;;;;;;;;;;;26.46;40.13;99490.78;5071340;28;19987;-77
2023/08/19 02:44:43;;;;;;;;;;;;;;;26.50;39.88;99477.50;5053336;28;20427;-77
2023/08/19 02:47:08;;;;;;;;;;;;;;;26.48;39.84;99498.63;5053396;28;19995;-78
2023/08/19 02:49:33;;;;;;;;;;;;;;;26.51;39.73;99487.25;5071247;28;20465;-78
2023/08/19 02:51:58;;;;;;;;;;;;;;;26.53;39.89;99479.63;5071103;28;19917;-77
2023/08/19 02:54:24;;;;;;;;;;;;;;;26.53;39.97;99479.63;5071399;28;20424;-78
2023/08/19 02:56:49;;;;;;;;;;;;;;;26.51;39.70;99473.69;5071566;28;19912;-78
2023/08/19 02:59:14;;;;;;;;;;;;;;;26.48;39.93;99475.06;5071466;28;20396;-77
2023/08/19 03:01:39;;;;;;;;;;;;;;;26.47;40.14;99486.19;5071385;28;19921;-77
2023/08/19 03:04:05;;;;;;;;;;;;;;;26.48;39.85;99493.22;5053603;28;19955;-77
2023/08/19 03:06:32;;;;;;;;;;;;;;;26.46;40.09;99506.22;5071437;28;20308;-77
2023/08/19 03:08:57;;;;;;;;;;;;;;;26.47;40.02;99508.66;5053490;28;19919;-77
2023/08/19 03:11:22;;;;;;;;;;;;;;;26.45;40.20;99529.78;5074144;28;19916;-78
2023/08/19 03:13:47;;;;;;;;;;;;;;;26.37;40.14;99530.41;5057224;28;19918;-77
2023/08/19 03:16:14;;;;;;;;;;;;;;;26.32;40.32;99530.41;5075109;28;19969;-77
2023/08/19 03:18:40;;;;;;;;;;;;;;;26.28;40.28;99529.34;5075412;28;19919;-77
2023/08/19 03:21:05;;;;;;;;;;;;;;;26.24;40.37;99542.63;5057405;28;19912;-79
2023/08/19 03:23:31;;;;;;;;;;;;;;;26.23;40.36;99556.44;5076445;28;20348;-77
2023/08/19 03:25:56;;;;;;;;;;;;;;;26.23;40.43;99556.44;5075587;28;19912;-78
2023/08/19 03:28:22;;;;;;;;;;;;;;;26.16;40.34;99555.97;5075055;28;20381;-77
2023/08/19 03:30:47;;;;;;;;;;;;;;;26.08;40.43;99565.47;5074615;28;19938;-78
2023/08/19 03:33:12;;;;;;;;;;;;;;;26.03;40.55;99575.50;5074841;28;20464;-77
2023/08/19 03:35:37;;;;;;;;;;;;;;;25.99;40.64;99564.41;5057001;28;19923;-77
2023/08/19 03:38:03;;;;;;;;;;;;;;;25.94;40.92;99549.00;5074577;28;20313;-77
2023/08/19 03:40:28;;;;;;;;;;;;;;;25.91;40.78;99549.56;5056008;28;19980;-78
2023/08/19 03:42:53;;;;;;;;;;;;;;;25.82;41.27;99553.94;5073998;28;20377;-77
2023/08/19 03:45:19;;;;;;;;;;;;;;;25.75;40.95;99542.63;5076358;28;19913;-78
2023/08/19 03:47:44;;;;;;;;;;;;;;;25.68;41.15;99539.41;5088810;28;19913;-77
2023/08/19 03:50:10;;;;;;;;;;;;;;;25.67;41.25;99534.28;5077740;28;19916;-78
2023/08/19 03:52:35;;;;;;;;;;;;;;;25.69;41.24;99524.81;5056110;28;19999;-77
2023/08/19 03:55:00;;;;;;;;;;;;;;;25.66;41.58;99517.25;5073818;28;20003;-77
2023/08/19 03:57:26;;;;;;;;;;;;;;;25.66;40.86;99511.84;5073886;28;19920;-77
2023/08/19 03:59:51;;;;;;;;;;;;;;;25.62;41.89;99502.63;5073886;28;19947;-77
2023/08/19 04:02:18;;;;;;;;;;;;;;;25.64;42.07;99500.47;5055395;28;21647;-77
2023/08/19 04:04:56;;;;;;;;;;;;;;;25.65;41.98;99500.22;5073832;28;19916;-77
2023/08/19 04:07:21;;;;;;;;;;;;;;;25.71;41.55;99489.38;5073757;28;20313;-78
2023/08/19 04:09:47;;;;;;;;;;;;;;;25.71;41.71;99470.44;5056232;28;19918;-78
2023/08/19 04:12:12;;;;;;;;;;;;;;;25.72;42.15;99472.84;5056044;28;19912;-78
2023/08/19 04:14:37;;;;;;;;;;;;;;;25.72;42.21;99464.75;5056561;28;19959;-78
2023/08/19 04:17:02;;;;;;;;;;;;;;;25.73;42.38;99466.38;5056069;28;20422;-78
2023/08/19 04:19:28;;;;;;;;;;;;;;;25.76;42.19;99459.59;5073652;28;19916;-79
2023/08/19 04:21:53;;;;;;;;;;;;;;;25.79;42.26;99457.13;5073447;28;19913;-78
2023/08/19 04:24:18;;;;;;;;;;;;;;;25.82;43.05;99477.41;5055891;28;19916;-77
2023/08/19 04:26:44;;;;;;;;;;;;;;;25.84;42.34;99494.97;5073597;28;20505;-77
2023/08/19 04:29:09;;;;;;;;;;;;;;;25.85;41.90;99509.31;5073482;28;20068;-76
2023/08/19 04:31:35;;;;;;;;;;;;;;;25.83;42.21;99506.88;5055526;28;20011;-77
2023/08/19 04:34:00;;;;;;;;;;;;;;;25.75;43.31;99490.44;5073267;28;19935;-78
2023/08/19 04:36:25;;;;;;;;;;;;;;;25.72;43.49;99485.56;5073381;28;19919;-78
2023/08/19 04:38:50;;;;;;;;;;;;;;;25.70;43.04;99504.78;5073410;28;19944;-77
2023/08/19 04:41:16;;;;;;;;;;;;;;;25.65;43.48;99502.06;5055346;28;20397;-77
2023/08/19 04:43:41;;;;;;;;;;;;;;;25.60;43.92;99502.91;5073360;28;19950;-78
2023/08/19 04:46:07;;;;;;;;;;;;;;;25.55;43.61;99485.91;5073265;28;19962;-78
2023/08/19 04:48:32;;;;;;;;;;;;;;;25.56;43.96;99472.09;5073189;28;19920;-78
2023/08/19 04:51:00;;;;;;;;;;;;;;;25.54;44.16;99462.66;5073010;28;19916;-78
2023/08/19 04:53:25;;;;;;;;;;;;;;;25.53;44.57;99466.44;5072891;28;20309;-77
2023/08/19 04:55:56;;;;;;;;;;;;;;;25.48;44.08;99477.28;5072995;28;19917;-78
2023/08/19 04:58:22;;;;;;;;;;;;;;;25.36;45.68;99509.22;5072673;28;19918;-77
2023/08/19 05:00:47;;;;;;;;;;;;;;;25.29;44.42;99518.44;5054430;28;20003;-77
2023/08/19 05:03:12;;;;;;;;;;;;;;;25.33;45.29;99526.81;5072512;28;19916;-78
2023/08/19 05:05:37;;;;;;;;;;;;;;;25.37;44.70;99541.38;5072574;28;19932;-79
2023/08/19 05:08:03;;;;;;;;;;;;;;;25.37;45.88;99548.69;5072491;28;19913;-77
2023/08/19 05:10:28;;;;;;;;;;;;;;;25.35;45.94;99573.28;5072530;28;19923;-78
2023/08/19 05:12:54;;;;;;;;;;;;;;;25.34;45.42;99571.66;5072293;28;19919;-79
2023/08/19 05:15:19;;;;;;;;;;;;;;;25.30;46.11;99566.00;5054150;28;20385;-78
2023/08/19 05:17:45;;;;;;;;;;;;;;;25.33;45.78;99560.06;5072031;28;19919;-77
2023/08/19 05:20:10;;;;;;;;;;;;;;;25.37;44.44;99559.50;5072781;28;20005;-78
2023/08/19 05:22:35;;;;;;;;;;;;;;;25.40;45.02;99573.28;5072148;28;19912;-79
2023/08/19 05:25:01;;;;;;;;;;;;;;;25.36;44.46;99572.22;5072178;28;20385;-76
2023/08/19 05:27:26;;;;;;;;;;;;;;;25.31;45.14;99577.63;5071949;28;19919;-79
2023/08/19 05:29:51;;;;;;;;;;;;;;;25.28;45.12;99573.56;5071954;28;20377;-79
2023/08/19 05:32:17;;;;;;;;;;;;;;;25.26;45.16;99569.50;5072335;28;19916;-78
2023/08/19 05:34:42;;;;;;;;;;;;;;;25.26;45.80;99570.31;5071605;28;19912;-78
2023/08/19 05:37:07;;;;;;;;;;;;;;;25.25;45.07;99568.69;5054020;28;20377;-78
2023/08/19 05:39:33;;;;;;;;;;;;;;;25.29;45.16;99548.16;5072168;28;19956;-78
2023/08/19 05:41:58;;;;;;;;;;;;;;;25.37;44.79;99514.38;5071773;28;19919;-77
2023/08/19 05:44:23;;;;;;;;;;;;;;;25.43;44.77;99528.66;5071957;28;19912;-78
2023/08/19 05:46:50;;;;;;;;;;;;;;;25.37;46.71;99554.09;5071936;28;19913;-79
2023/08/19 05:49:15;;;;;;;;;;;;;;;25.25;46.64;99573.28;5053896;28;19912;-77
2023/08/19 05:51:40;;;;;;;;;;;;;;;25.24;45.47;99547.34;5071881;28;19938;-77
2023/08/19 05:54:05;;;;;;;;;;;;;;;25.22;46.57;99534.09;5071617;28;19913;-76
2023/08/19 05:56:31;;;;;;;;;;;;;;;25.28;45.87;99540.34;5071825;28;20368;-77
2023/08/19 05:58:56;;;;;;;;;;;;;;;25.30;46.50;99548.97;5053698;28;20468;-78
2023/08/19 06:01:21;;;;;;;;;;;;;;;25.31;47.24;99581.13;5053563;28;19977;-79
2023/08/19 06:03:46;;;;;;;;;;;;;;;25.36;44.57;99610.03;5071699;28;19921;-78
2023/08/19 06:06:12;;;;;;;;;;;;;;;25.39;45.01;99597.88;5053746;28;19985;-79
2023/08/19 06:08:37;;;;;;;;;;;;;;;25.43;45.98;99588.13;5071782;28;19912;-78
2023/08/19 06:11:05;;;;;;;;;;;;;;;25.51;45.29;99579.47;5053579;28;19916;-78
2023/08/19 06:13:30;;;;;;;;;;;;;;;25.60;45.31;99584.03;5071612;28;20376;-78
2023/08/19 06:15:55;;;;;;;;;;;;;;;25.71;45.05;99581.31;5053542;28;19912;-78
2023/08/19 06:18:21;;;;;;;;;;;;;;;25.78;44.85;99582.63;5071414;28;20373;-78
2023/08/19 06:20:47;;;;;;;;;;;;;;;25.84;44.12;99573.41;5071558;28;19912;-78
2023/08/19 06:23:12;;;;;;;;;;;;;;;25.89;44.52;99572.56;5071549;28;19951;-77
2023/08/19 06:25:38;;;;;;;;;;;;;;;25.95;44.33;99576.88;5071692;28;19919;-77
2023/08/19 06:28:03;;;;;;;;;;;;;;;26.04;43.73;99580.66;5060081;28;19913;-79
2023/08/19 06:30:28;;;;;;;;;;;;;;;26.13;43.61;99578.97;5084802;28;19928;-78
2023/08/19 06:32:54;;;;;;;;;;;;;;;26.15;43.20;99579.50;5073790;28;19916;-76
2023/08/19 06:35:19;;;;;;;;;;;;;;;26.16;43.22;99572.19;5071394;28;19919;-77
2023/08/19 06:37:46;;;;;;;;;;;;;;;26.23;43.31;99573.50;5053792;28;19920;-77
2023/08/19 06:40:12;;;;;;;;;;;;;;;26.25;43.03;99571.31;5053302;28;19962;-79
2023/08/19 06:42:38;;;;;;;;;;;;;;;26.26;43.31;99566.72;5071256;28;19913;-76
2023/08/19 06:45:05;;;;;;;;;;;;;;;26.33;42.92;99574.56;5071472;28;19905;-77
2023/08/19 06:47:34;;;;;;;;;;;;;;;26.39;42.75;99566.13;5074927;28;19904;-78
2023/08/19 06:49:59;;;;;;;;;;;;;;;26.47;43.01;99567.41;5074973;28;19916;-77
2023/08/19 06:52:24;;;;;;;;;;;;;;;26.53;42.58;99569.81;5075040;28;19935;-77
2023/08/19 06:54:50;;;;;;;;;;;;;;;26.67;42.43;99574.56;5082618;28;19931;-77
2023/08/19 06:57:27;;;;;;;;;;;;;;;26.76;42.26;99570.19;5056968;28;19963;-78
2023/08/19 06:59:53;;;;;;;;;;;;;;;26.86;42.42;99568.22;5056832;28;20404;-78
2023/08/19 07:02:19;;;;;;;;;;;;;;;26.92;42.05;99567.06;5075095;28;20001;-78
2023/08/19 07:04:48;;;;;;;;;;;;;;;26.99;41.82;99561.34;5075024;28;20336;-78
2023/08/19 07:07:14;;;;;;;;;;;;;;;26.99;40.61;99565.97;5074807;28;19966;-77
2023/08/19 07:09:40;;;;;;;;;;;;;;;27.05;40.84;99565.63;5075034;28;20309;-78
2023/08/19 07:12:06;;;;;;;;;;;;;;;27.09;40.93;99563.16;5057078;28;19920;-77
2023/08/19 07:14:32;;;;;;;;;;;;;;;27.23;40.55;99572.22;5056849;28;19942;-78
2023/08/19 07:17:01;;;;;;;;;;;;;;;27.36;40.22;99573.44;5074662;28;20002;-79
2023/08/19 07:19:29;;;;;;;;;;;;;;;27.48;40.46;99580.09;5074854;28;19912;-77
2023/08/19 07:21:55;;;;;;;;;;;;;;;27.64;40.00;99571.81;5057201;28;20297;-78
2023/08/19 07:24:21;;;;;;;;;;;;;;;27.69;39.66;99578.00;5074866;28;19913;-78
2023/08/19 07:26:48;;;;;;;;;;;;;;;27.76;39.74;99586.59;5074754;28;19912;-78
2023/08/19 07:29:13;;;;;;;;;;;;;;;27.79;39.73;99591.44;5074495;28;19912;-78
2023/08/19 07:31:38;;;;;;;;;;;;;;;27.88;39.41;99585.38;5074713;28;20382;-78
2023/08/19 07:34:04;;;;;;;;;;;;;;;27.97;39.92;99589.84;5074661;28;20429;-78
2023/08/19 07:36:29;;;;;;;;;;;;;;;28.02;39.16;99580.84;5056264;28;19919;-78
2023/08/19 07:38:54;;;;;;;;;;;;;;;28.11;38.91;99579.09;5074322;28;20412;-78
2023/08/19 07:41:19;;;;;;;;;;;;;;;28.12;39.15;99580.69;5056182;28;19913;-77
2023/08/19 07:43:45;;;;;;;;;;;;;;;28.16;39.16;99576.28;5074439;28;19912;-77
2023/08/19 07:46:11;;;;;;;;;;;;;;;28.21;39.21;99581.66;5074109;28;19912;-77
2023/08/19 07:48:36;;;;;;;;;;;;;;;28.25;39.09;99577.31;5056329;28;19913;-78
2023/08/19 07:51:01;;;;;;;;;;;;;;;28.27;38.92;99572.41;5074053;28;19924;-76
2023/08/19 07:53:26;;;;;;;;;;;;;;;28.37;39.01;99576.88;5073874;28;20469;-78
2023/08/19 07:55:52;;;;;;;;;;;;;;;28.42;38.97;99568.66;5073176;28;19919;-78
2023/08/19 07:58:17;;;;;;;;;;;;;;;28.46;39.01;99570.47;5073758;28;20380;-78
2023/08/19 08:00:42;;;;;;;;;;;;;;;28.57;38.41;99570.31;5073709;28;19920;-76
2023/08/19 08:03:08;;;;;;;;;;;;;;;28.64;38.55;99576.19;5073681;28;19916;-78
2023/08/19 08:05:33;;;;;;;;;;;;;;;28.72;38.25;99573.59;5073884;28;19935;-78
2023/08/19 08:07:59;;;;;;;;;;;;;;;28.71;38.24;99573.88;5073632;28;19920;-77
2023/08/19 08:10:24;;;;;;;;;;;;;;;28.78;38.22;99572.41;5055704;28;19916;-77
2023/08/19 08:12:49;;;;;;;;;;;;;;;28.89;38.21;99578.50;5055956;28;19959;-78
2023/08/19 08:15:15;;;;;;;;;;;;;;;28.99;37.96;99567.47;5073747;28;19913;-77
2023/08/19 08:17:40;;;;;;;;;;;;;;;29.16;38.30;99574.25;5073832;28;19912;-77
2023/08/19 08:20:07;;;;;;;;;;;;;;;29.29;37.88;99573.47;5073576;28;19912;-78
2023/08/19 08:22:32;;;;;;;;;;;;;;;29.40;37.48;99574.88;5073655;28;19912;-78
2023/08/19 08:24:58;;;;;;;;;;;;;;;29.46;37.16;99571.00;5073556;28;19923;-78
2023/08/19 08:27:23;;;;;;;;;;;;;;;29.57;37.06;99571.59;5073761;28;20308;-78
2023/08/19 08:29:48;;;;;;;;;;;;;;;29.62;36.50;99583.19;5055942;28;20009;-77
2023/08/19 08:32:14;;;;;;;;;;;;;;;29.72;36.82;99571.28;5073636;28;20334;-78
2023/08/19 08:34:39;;;;;;;;;;;;;;;29.82;35.70;99575.72;5073383;28;20317;-78
2023/08/19 08:37:05;;;;;;;;;;;;;;;29.82;36.02;99570.28;5073220;28;19938;-77
2023/08/19 08:39:30;;;;;;;;;;;;;;;29.91;36.83;99568.47;5055295;28;19919;-76
2023/08/19 08:41:55;;;;;;;;;;;;;;;30.00;36.27;99562.00;5073174;28;19912;-78
2023/08/19 08:44:24;;;;;;;;;;;;;;;30.15;36.33;99566.31;5073100;28;19912;-77
2023/08/19 08:46:50;;;;;;;;;;;;;;;30.24;35.80;99563.66;5072896;28;20412;-76
2023/08/19 08:49:16;;;;;;;;;;;;;;;30.25;35.77;99560.63;5073111;28;20003;-76
2023/08/19 08:51:41;;;;;;;;;;;;;;;30.34;36.22;99564.25;5073261;28;19920;-78
2023/08/19 08:54:07;;;;;;;;;;;;;;;30.50;35.76;99559.25;5072533;28;19919;-78
2023/08/19 08:56:32;;;;;;;;;;;;;;;30.57;34.55;99561.56;5072566;28;19934;-76
2023/08/19 08:58:58;;;;;;;;;;;;;;;30.72;34.56;99563.94;5072625;28;20421;-78
2023/08/19 09:01:24;;;;;;;;;;;;;;;30.89;34.67;99561.31;5072559;28;20294;-78
2023/08/19 09:03:51;;;;;;;;;;;;;;;31.03;33.80;99554.97;5072469;28;19912;-77
2023/08/19 09:06:16;;;;;;;;;;;;;;;31.17;34.37;99559.25;5054525;28;19915;-77
2023/08/19 09:09:02;;;;;;;;;;;;;;;31.31;34.16;99548.25;5071722;28;19913;-77
2023/08/19 09:11:27;;;;;;;;;;;;;;;31.51;33.77;99553.13;5072369;28;19916;-78
2023/08/19 09:14:16;;;;;;;;;;;;;;;31.71;33.32;99538.13;5072347;28;20412;-77
2023/08/19 09:16:41;;;;;;;;;;;;;;;31.89;33.29;99542.50;5064312;28;20058;-78
2023/08/19 09:19:06;;;;;;;;;;;;;;;32.02;32.42;99537.22;5072658;28;19995;-78
2023/08/19 09:21:32;;;;;;;;;;;;;;;32.12;32.85;99529.53;5054139;28;19930;-77
2023/08/19 09:24:00;;;;;;;;;;;;;;;32.29;31.38;99527.94;5072485;28;20377;-78
2023/08/19 09:26:26;;;;;;;;;;;;;;;32.52;31.66;99532.91;5054482;28;20412;-77
2023/08/19 09:28:55;;;;;;;;;;;;;;;32.68;31.92;99535.13;5054697;28;19912;-77
2023/08/19 09:31:21;;;;;;;;;;;;;;;32.83;30.88;99523.72;5072240;28;19966;-78
2023/08/19 09:33:47;;;;;;;;;;;;;;;32.98;29.38;99530.59;5054313;28;19916;-77
2023/08/19 09:36:12;;;;;;;;;;;;;;;33.17;30.39;99515.41;5072982;28;19912;-77
2023/08/19 09:38:38;;;;;;;;;;;;;;;33.37;31.08;99518.56;5073526;28;19912;-75
2023/08/19 09:41:06;;;;;;;;;;;;;;;33.55;31.17;99506.41;5074370;28;19912;-77
2023/08/19 09:43:32;;;;;;;;;;;;;;;33.56;30.02;99518.16;5072872;28;19913;-75
2023/08/19 09:45:57;;;;;;;;;;;;;;;33.64;29.75;99495.41;5072386;28;19918;-77
2023/08/19 09:48:23;;;;;;;;;;;;;;;33.75;30.18;99505.63;5072356;28;20359;-78
2023/08/19 09:50:49;;;;;;;;;;;;;;;33.97;28.94;99506.47;5072545;28;19920;-77
2023/08/19 09:53:16;;;;;;;;;;;;;;;34.16;28.90;99504.03;5072551;28;19912;-78
2023/08/19 09:55:44;;;;;;;;;;;;;;;34.26;29.70;99506.41;5052161;28;20021;-78
2023/08/19 09:58:09;;;;;;;;;;;;;;;34.36;28.41;99495.03;5053705;28;19916;-79
2023/08/19 10:00:34;;;;;;;;;;;;;;;34.47;29.08;99495.41;5071725;28;20058;-77
2023/08/19 10:03:00;;;;;;;;;;;;;;;34.30;28.10;99495.56;5071618;28;19912;-77
2023/08/19 10:05:27;;;;;;;;;;;;;;;34.13;29.34;99495.69;5053604;28;19920;-77
2023/08/19 10:07:56;;;;;;;;;;;;;;;34.28;28.83;99509.59;5071469;28;19954;-78
2023/08/19 10:10:24;;;;;;;;;;;;;;;34.45;29.17;99500.44;5071374;28;20445;-76
2023/08/19 10:12:50;;;;;;;;;;;;;;;34.67;29.02;99499.25;5053369;28;19912;-78
2023/08/19 10:15:17;;;;;;;;;;;;;;;34.70;28.98;99484.84;5071975;28;19919;-79
2023/08/19 10:17:47;;;;;;;;;;;;;;;34.94;29.02;99492.38;5071581;28;19912;-78
2023/08/19 10:20:17;;;;;;;;;;;;;;;35.10;28.58;99489.75;5056018;28;19912;-77
2023/08/19 10:22:45;;;;;;;;;;;;;;;35.22;28.72;99490.56;5075702;28;19966;-78
2023/08/19 10:25:11;;;;;;;;;;;;;;;35.38;27.58;99489.91;5075520;28;19913;-77
2023/08/19 10:27:37;;;;;;;;;;;;;;;35.50;28.04;99487.94;5057461;28;19918;-77
2023/08/19 10:30:21;;;;;;;;;;;;;;;35.67;27.89;99495.13;5075299;28;20003;-77
2023/08/19 10:32:46;;;;;;;;;;;;;;;35.69;28.27;99492.84;5075187;28;20290;-77
2023/08/19 10:35:12;;;;;;;;;;;;;;;35.73;28.43;99484.72;5057286;28;19919;-77
2023/08/19 10:37:41;;;;;;;;;;;;;;;35.70;28.67;99474.44;5075193;28;19912;-77
2023/08/19 10:40:26;;;;;;;;;;;;;;;35.64;28.15;99471.09;5075464;28;19916;-78
2023/08/19 10:42:56;;;;;;;;;;;;;;;35.92;28.60;99466.50;5074819;28;19916;-76
2023/08/19 10:45:22;;;;;;;;;;;;;;;36.20;28.49;99462.94;5075049;28;19969;-77
2023/08/19 10:47:50;;;;;;;;;;;;;;;36.49;28.08;99464.56;5056938;28;19913;-78
2023/08/19 10:50:16;;;;;;;;;;;;;;;36.64;27.39;99477.53;5057908;28;19913;-77
2023/08/19 10:52:57;;;;;;;;;;;;;;;36.37;25.74;99475.59;5075108;28;20411;-77
2023/08/19 10:55:22;;;;;;;;;;;;;;;36.09;28.00;99467.34;5074813;28;19920;-77
2023/08/19 10:57:47;;;;;;;;;;;;;;;35.68;28.30;99472.03;5056820;28;19913;-78
2023/08/19 11:00:13;;;;;;;;;;;;;;;35.33;27.61;99472.50;5074777;28;20317;-77
2023/08/19 11:02:38;;;;;;;;;;;;;;;35.11;28.16;99464.72;5074887;28;19919;-79
2023/08/19 11:05:04;;;;;;;;;;;;;;;35.22;27.96;99465.84;5074760;28;19958;-78
2023/08/19 11:07:29;;;;;;;;;;;;;;;35.71;26.19;99462.28;5074834;28;19920;-77
2023/08/19 11:09:54;;;;;;;;;;;;;;;35.87;25.12;99457.69;5074818;28;19970;-78
2023/08/19 11:12:21;;;;;;;;;;;;;;;36.23;26.66;99467.75;5075044;28;20392;-76
2023/08/19 11:14:50;;;;;;;;;;;;;;;36.50;24.65;99450.47;5074619;28;20427;-78
2023/08/19 11:17:16;;;;;;;;;;;;;;;36.84;25.32;99450.94;5074550;28;19919;-78
2023/08/19 11:19:42;;;;;;;;;;;;;;;37.21;24.32;99448.72;5056482;28;19912;-77
2023/08/19 11:22:11;;;;;;;;;;;;;;;37.33;24.13;99442.31;5074645;28;19919;-78
2023/08/19 11:24:36;;;;;;;;;;;;;;;37.34;24.63;99452.97;5056738;28;19912;-78
2023/08/19 11:27:02;;;;;;;;;;;;;;;36.79;26.03;99460.25;5074534;28;19912;-76
2023/08/19 11:29:28;;;;;;;;;;;;;;;36.45;25.79;99453.47;5074415;28;19923;-79
2023/08/19 11:31:53;;;;;;;;;;;;;;;36.65;25.87;99461.84;5055489;28;19916;-78
2023/08/19 11:34:19;;;;;;;;;;;;;;;36.75;26.08;99456.59;5056236;28;19912;-77
2023/08/19 11:36:45;;;;;;;;;;;;;;;36.52;25.91;99450.91;5074114;28;20381;-78
2023/08/19 11:39:10;;;;;;;;;;;;;;;36.28;26.20;99448.22;5074498;28;19913;-77
2023/08/19 11:41:35;;;;;;;;;;;;;;;36.39;26.32;99443.84;5074807;28;19919;-77
2023/08/19 11:44:02;;;;;;;;;;;;;;;36.55;25.84;99432.91;5056727;28;19912;-78
2023/08/19 11:46:31;;;;;;;;;;;;;;;36.73;25.37;99441.59;5074614;28;19913;-76
2023/08/19 11:48:57;;;;;;;;;;;;;;;36.93;25.41;99429.53;5074478;28;19919;-77
2023/08/19 11:51:23;;;;;;;;;;;;;;;37.19;25.32;99440.00;5074319;28;20337;-78
2023/08/19 11:53:52;;;;;;;;;;;;;;;37.36;25.22;99430.59;5074210;28;19918;-78
2023/08/19 11:56:17;;;;;;;;;;;;;;;37.52;25.01;99425.81;5073947;28;20404;-78
2023/08/19 11:58:49;;;;;;;;;;;;;;;37.76;24.79;99416.50;5073807;28;19912;-78
2023/08/19 12:01:15;;;;;;;;;;;;;;;38.05;23.36;99413.19;5073510;28;19968;-76
2023/08/19 12:03:41;;;;;;;;;;;;;;;38.14;23.54;99413.75;5055641;28;19955;-79
2023/08/19 12:06:07;;;;;;;;;;;;;;;38.16;23.61;99421.69;5073597;28;19913;-79
2023/08/19 12:08:32;;;;;;;;;;;;;;;38.26;22.60;99410.06;5073670;28;20387;-79
2023/08/19 12:10:58;;;;;;;;;;;;;;;38.37;22.92;99400.00;5073674;28;20008;-78
2023/08/19 12:13:24;;;;;;;;;;;;;;;38.32;23.90;99411.34;5073690;28;19912;-76
2023/08/19 12:15:50;;;;;;;;;;;;;;;38.35;23.88;99418.09;5073476;28;19919;-79
2023/08/19 12:18:15;;;;;;;;;;;;;;;38.36;23.61;99403.13;5073247;28;20305;-78
2023/08/19 12:20:41;;;;;;;;;;;;;;;38.50;24.11;99400.63;5073237;28;19952;-77
2023/08/19 12:23:06;;;;;;;;;;;;;;;38.49;22.92;99404.56;5055402;28;20004;-79
2023/08/19 12:25:31;;;;;;;;;;;;;;;38.47;23.38;99407.69;5073411;28;19912;-76
2023/08/19 12:27:58;;;;;;;;;;;;;;;38.46;23.17;99408.84;5073632;28;19909;-78
2023/08/19 12:30:23;;;;;;;;;;;;;;;38.41;23.28;99400.06;5073392;28;20415;-76
2023/08/19 12:32:48;;;;;;;;;;;;;;;38.08;23.22;99415.22;5073704;28;20011;-78
2023/08/19 12:35:14;;;;;;;;;;;;;;;37.62;23.45;99419.75;5073756;28;19966;-76
2023/08/19 12:37:39;;;;;;;;;;;;;;;37.09;22.84;99411.06;5073592;28;20381;-76
2023/08/19 12:40:05;;;;;;;;;;;;;;;36.50;23.18;99424.91;5055144;28;19917;-77
2023/08/19 12:42:31;;;;;;;;;;;;;;;35.92;23.47;99428.00;5072377;28;19912;-79